sensor_id;sensor_type;location;lat;lon;timestamp;pressure;altitude;pressure_sealevel;temperature;humidity
9421;BME280;4749;51.398;5.466;2024-01-30T00:01:20;102485.97;;;7.54;100.00
9421;BME280;4749;51.398;5.466;2024-01-30T00:03:47;102485.91;;;7.53;100.00
9421;BME280;4749;51.398;5.466;2024-01-30T00:06:17;102484.94;;;7.51;100.00
9421;BME280;4749;51.398;5.466;2024-01-30T00:08:45;102487.50;;;7.49;100.00
9421;BME280;4749;51.398;5.466;2024-01-30T00:11:16;102478.69;;;7.47;100.00
9421;BME280;4749;51.398;5.466;2024-01-30T00:13:43;102488.25;;;7.47;100.00
9421;BME280;4749;51.398;5.466;2024-01-30T00:16:21;102479.50;;;7.46;100.00
9421;BME280;4749;51.398;5.466;2024-01-30T00:18:48;102481.19;;;7.44;100.00
9421;BME280;4749;51.398;5.466;2024-01-30T00:21:16;102481.19;;;7.44;100.00
9421;BME280;4749;51.398;5.466;2024-01-30T00:23:43;102476.72;;;7.42;100.00
9421;BME280;4749;51.398;5.466;2024-01-30T00:26:10;102475.00;;;7.42;100.00
9421;BME280;4749;51.398;5.466;2024-01-30T00:28:38;102476.72;;;7.42;100.00
9421;BME280;4749;51.398;5.466;2024-01-30T00:31:06;102475.06;;;7.44;100.00
9421;BME280;4749;51.398;5.466;2024-01-30T00:33:33;102475.00;;;7.42;100.00
9421;BME280;4749;51.398;5.466;2024-01-30T00:36:00;102468.94;;;7.43;100.00
9421;BME280;4749;51.398;5.466;2024-01-30T00:38:27;102482.00;;;7.43;100.00
9421;BME280;4749;51.398;5.466;2024-01-30T00:40:54;102475.94;;;7.44;100.00
9421;BME280;4749;51.398;5.466;2024-01-30T00:43:21;102474.22;;;7.45;100.00
9421;BME280;4749;51.398;5.466;2024-01-30T00:45:49;102474.22;;;7.45;100.00
9421;BME280;4749;51.398;5.466;2024-01-30T00:48:17;102475.88;;;7.43;100.00
9421;BME280;4749;51.398;5.466;2024-01-30T00:50:45;102468.94;;;7.43;100.00
9421;BME280;4749;51.398;5.466;2024-01-30T00:53:12;102465.38;;;7.41;100.00
9421;BME280;4749;51.398;5.466;2024-01-30T00:55:39;102462.81;;;7.43;100.00
9421;BME280;4749;51.398;5.466;2024-01-30T00:58:06;102468.03;;;7.43;100.00
9421;BME280;4749;51.398;5.466;2024-01-30T01:00:34;102462.81;;;7.43;100.00
9421;BME280;4749;51.398;5.466;2024-01-30T01:03:02;102461.06;;;7.43;100.00
9421;BME280;4749;51.398;5.466;2024-01-30T01:05:29;102466.38;;;7.45;100.00
9421;BME280;4749;51.398;5.466;2024-01-30T01:07:56;102459.41;;;7.45;100.00
9421;BME280;4749;51.398;5.466;2024-01-30T01:10:24;102451.50;;;7.44;100.00
9421;BME280;4749;51.398;5.466;2024-01-30T01:12:51;102455.06;;;7.46;100.00
9421;BME280;4749;51.398;5.466;2024-01-30T01:15:18;102455.06;;;7.46;100.00
9421;BME280;4749;51.398;5.466;2024-01-30T01:17:45;102456.84;;;7.47;100.00
9421;BME280;4749;51.398;5.466;2024-01-30T01:20:13;102459.56;;;7.48;100.00
9421;BME280;4749;51.398;5.466;2024-01-30T01:22:40;102453.53;;;7.51;100.00
9421;BME280;4749;51.398;5.466;2024-01-30T01:25:09;102451.03;;;7.54;100.00
9421;BME280;4749;51.398;5.466;2024-01-30T01:27:37;102457.31;;;7.57;100.00
9421;BME280;4749;51.398;5.466;2024-01-30T01:30:10;102444.38;;;7.62;100.00
9421;BME280;4749;51.398;5.466;2024-01-30T01:32:39;102448.84;;;7.65;100.00
9421;BME280;4749;51.398;5.466;2024-01-30T01:35:12;102452.50;;;7.68;100.00
9421;BME280;4749;51.398;5.466;2024-01-30T01:37:39;102450.00;;;7.71;100.00
9421;BME280;4749;51.398;5.466;2024-01-30T01:40:07;102454.59;;;7.77;100.00
9421;BME280;4749;51.398;5.466;2024-01-30T01:42:34;102446.84;;;7.80;100.00
9421;BME280;4749;51.398;5.466;2024-01-30T01:45:03;102446.00;;;7.81;100.00
9421;BME280;4749;51.398;5.466;2024-01-30T01:47:30;102439.13;;;7.83;100.00
9421;BME280;4749;51.398;5.466;2024-01-30T01:49:57;102442.75;;;7.86;100.00
9421;BME280;4749;51.398;5.466;2024-01-30T01:52:25;102434.94;;;7.88;100.00
9421;BME280;4749;51.398;5.466;2024-01-30T01:54:52;102441.13;;;7.90;100.00
9421;BME280;4749;51.398;5.466;2024-01-30T01:57:20;102436.88;;;7.92;100.00
9421;BME280;4749;51.398;5.466;2024-01-30T01:59:47;102430.72;;;7.92;100.00
9421;BME280;4749;51.398;5.466;2024-01-30T02:02:15;102417.63;;;7.92;100.00
9421;BME280;4749;51.398;5.466;2024-01-30T02:04:44;102432.47;;;7.91;100.00
9421;BME280;4749;51.398;5.466;2024-01-30T02:07:11;102428.81;;;7.87;100.00
9421;BME280;4749;51.398;5.466;2024-01-30T02:09:38;102424.41;;;7.86;100.00
9421;BME280;4749;51.398;5.466;2024-01-30T02:12:06;102420.84;;;7.84;100.00
9421;BME280;4749;51.398;5.466;2024-01-30T02:14:33;102423.41;;;7.83;100.00
9421;BME280;4749;51.398;5.466;2024-01-30T02:17:10;102425.16;;;7.82;100.00
9421;BME280;4749;51.398;5.466;2024-01-30T02:19:38;102418.94;;;7.80;100.00
9421;BME280;4749;51.398;5.466;2024-01-30T02:22:06;102435.53;;;7.81;100.00
9421;BME280;4749;51.398;5.466;2024-01-30T02:24:34;102425.91;;;7.80;100.00
9421;BME280;4749;51.398;5.466;2024-01-30T02:27:01;102421.50;;;7.79;100.00
9421;BME280;4749;51.398;5.466;2024-01-30T02:29:28;102415.38;;;7.78;100.00
9421;BME280;4749;51.398;5.466;2024-01-30T02:31:55;102415.38;;;7.78;100.00
9421;BME280;4749;51.398;5.466;2024-01-30T02:34:24;102410.97;;;7.77;100.00
9421;BME280;4749;51.398;5.466;2024-01-30T02:36:51;102419.75;;;7.79;100.00
9421;BME280;4749;51.398;5.466;2024-01-30T02:39:18;102413.63;;;7.79;100.00
9421;BME280;4749;51.398;5.466;2024-01-30T02:41:46;102421.53;;;7.80;100.00
9421;BME280;4749;51.398;5.466;2024-01-30T02:44:13;102414.59;;;7.81;100.00
9421;BME280;4749;51.398;5.466;2024-01-30T02:46:41;102412.06;;;7.82;100.00
9421;BME280;4749;51.398;5.466;2024-01-30T02:49:08;102411.22;;;7.83;100.00
9421;BME280;4749;51.398;5.466;2024-01-30T02:51:35;102414.78;;;7.85;100.00
9421;BME280;4749;51.398;5.466;2024-01-30T02:54:03;102412.25;;;7.88;100.00
9421;BME280;4749;51.398;5.466;2024-01-30T02:56:30;102414.94;;;7.90;100.00
9421;BME280;4749;51.398;5.466;2024-01-30T02:58:57;102409.69;;;7.90;100.00
9421;BME280;4749;51.398;5.466;2024-01-30T03:01:24;102412.47;;;7.93;100.00
9421;BME280;4749;51.398;5.466;2024-01-30T03:03:51;102409.94;;;7.96;100.00
9421;BME280;4749;51.398;5.466;2024-01-30T03:06:19;102407.31;;;7.96;100.00
9421;BME280;4749;51.398;5.466;2024-01-30T03:08:47;102407.38;;;7.98;100.00
9421;BME280;4749;51.398;5.466;2024-01-30T03:11:14;102404.69;;;7.96;100.00
9421;BME280;4749;51.398;5.466;2024-01-30T03:13:41;102404.66;;;7.95;100.00
9421;BME280;4749;51.398;5.466;2024-01-30T03:16:08;102408.94;;;7.93;100.00
9421;BME280;4749;51.398;5.466;2024-01-30T03:18:35;102400.94;;;7.89;100.00
9421;BME280;4749;51.398;5.466;2024-01-30T03:21:03;102395.59;;;7.86;100.00
9421;BME280;4749;51.398;5.466;2024-01-30T03:23:30;102396.38;;;7.84;100.00
9421;BME280;4749;51.398;5.466;2024-01-30T03:25:59;102392.84;;;7.82;100.00
9421;BME280;4749;51.398;5.466;2024-01-30T03:28:26;102386.56;;;7.78;100.00
9421;BME280;4749;51.398;5.466;2024-01-30T03:30:53;102383.00;;;7.76;100.00
9421;BME280;4749;51.398;5.466;2024-01-30T03:33:20;102384.72;;;7.76;100.00
9421;BME280;4749;51.398;5.466;2024-01-30T03:35:47;102378.47;;;7.72;100.00
9421;BME280;4749;51.398;5.466;2024-01-30T03:38:15;102382.06;;;7.74;100.00
9421;BME280;4749;51.398;5.466;2024-01-30T03:40:42;102389.97;;;7.76;100.00
9421;BME280;4749;51.398;5.466;2024-01-30T03:43:09;102389.13;;;7.77;100.00
9421;BME280;4749;51.398;5.466;2024-01-30T03:45:36;102395.31;;;7.79;100.00
9421;BME280;4749;51.398;5.466;2024-01-30T03:48:04;102387.50;;;7.80;100.00
9421;BME280;4749;51.398;5.466;2024-01-30T03:50:31;102389.28;;;7.81;100.00
9421;BME280;4749;51.398;5.466;2024-01-30T03:52:58;102390.25;;;7.83;100.00
9421;BME280;4749;51.398;5.466;2024-01-30T03:55:25;102385.13;;;7.86;100.00
9421;BME280;4749;51.398;5.466;2024-01-30T03:57:52;102390.47;;;7.89;100.00
9421;BME280;4749;51.398;5.466;2024-01-30T04:00:20;102388.00;;;7.93;100.00
9421;BME280;4749;51.398;5.466;2024-01-30T04:02:47;102396.00;;;7.97;100.00
9421;BME280;4749;51.398;5.466;2024-01-30T04:05:14;102395.25;;;8.00;100.00
9421;BME280;4749;51.398;5.466;2024-01-30T04:07:41;102398.81;;;8.02;100.00
9421;BME280;4749;51.398;5.466;2024-01-30T04:10:10;102392.78;;;8.04;100.00
9421;BME280;4749;51.398;5.466;2024-01-30T04:12:37;102403.41;;;8.07;100.00
9421;BME280;4749;51.398;5.466;2024-01-30T04:15:05;102388.56;;;8.08;100.00
9421;BME280;4749;51.398;5.466;2024-01-30T04:17:32;102391.19;;;8.08;100.00
9421;BME280;4749;51.398;5.466;2024-01-30T04:19:59;102389.47;;;8.08;100.00
9421;BME280;4749;51.398;5.466;2024-01-30T04:22:27;102392.97;;;8.09;100.00
9421;BME280;4749;51.398;5.466;2024-01-30T04:24:54;102377.31;;;8.10;100.00
9421;BME280;4749;51.398;5.466;2024-01-30T04:27:21;102393.91;;;8.11;100.00
9421;BME280;4749;51.398;5.466;2024-01-30T04:29:49;102385.28;;;8.13;100.00
9421;BME280;4749;51.398;5.466;2024-01-30T04:32:16;102384.50;;;8.16;100.00
9421;BME280;4749;51.398;5.466;2024-01-30T04:34:43;102373.25;;;8.18;100.00
9421;BME280;4749;51.398;5.466;2024-01-30T04:37:11;102378.59;;;8.22;100.00
9421;BME280;4749;51.398;5.466;2024-01-30T04:39:38;102369.13;;;8.25;100.00
9421;BME280;4749;51.398;5.466;2024-01-30T04:42:05;102364.00;;;8.28;100.00
9421;BME280;4749;51.398;5.466;2024-01-30T04:44:35;102361.47;;;8.31;100.00
9421;BME280;4749;51.398;5.466;2024-01-30T04:47:02;102354.72;;;8.36;100.00
9421;BME280;4749;51.398;5.466;2024-01-30T04:49:32;102357.56;;;8.42;100.00
9421;BME280;4749;51.398;5.466;2024-01-30T04:51:59;102357.66;;;8.45;100.00
9421;BME280;4749;51.398;5.466;2024-01-30T04:54:26;102354.38;;;8.51;100.00
9421;BME280;4749;51.398;5.466;2024-01-30T04:56:53;102354.50;;;8.56;100.00
9421;BME280;4749;51.398;5.466;2024-01-30T04:59:21;102351.16;;;8.60;100.00
9421;BME280;4749;51.398;5.466;2024-01-30T05:01:48;102354.78;;;8.63;100.00
9421;BME280;4749;51.398;5.466;2024-01-30T05:04:15;102363.66;;;8.67;100.00
9421;BME280;4749;51.398;5.466;2024-01-30T05:06:43;102360.25;;;8.69;100.00
9421;BME280;4749;51.398;5.466;2024-01-30T05:09:11;102352.50;;;8.74;100.00
9421;BME280;4749;51.398;5.466;2024-01-30T05:11:41;102350.00;;;8.77;100.00
9421;BME280;4749;51.398;5.466;2024-01-30T05:14:08;102353.63;;;8.81;100.00
9421;BME280;4749;51.398;5.466;2024-01-30T05:16:36;102352.78;;;8.82;100.00
9421;BME280;4749;51.398;5.466;2024-01-30T05:19:04;102357.34;;;8.87;100.00
9421;BME280;4749;51.398;5.466;2024-01-30T05:21:31;102356.56;;;8.90;100.00
9421;BME280;4749;51.398;5.466;2024-01-30T05:23:58;102361.06;;;8.94;100.00
9421;BME280;4749;51.398;5.466;2024-01-30T05:26:25;102356.81;;;8.97;100.00
9421;BME280;4749;51.398;5.466;2024-01-30T05:28:53;102357.81;;;9.01;100.00
9421;BME280;4749;51.398;5.466;2024-01-30T05:31:20;102357.94;;;9.06;100.00
9421;BME280;4749;51.398;5.466;2024-01-30T05:33:48;102356.25;;;9.08;100.00
9421;BME280;4749;51.398;5.466;2024-01-30T05:36:15;102355.50;;;9.10;100.00
9421;BME280;4749;51.398;5.466;2024-01-30T05:38:43;102360.78;;;9.12;100.00
9421;BME280;4749;51.398;5.466;2024-01-30T05:41:10;102354.69;;;9.13;100.00
9421;BME280;4749;51.398;5.466;2024-01-30T05:43:37;102353.91;;;9.15;100.00
9421;BME280;4749;51.398;5.466;2024-01-30T05:46:04;102355.78;;;9.19;100.00
9421;BME280;4749;51.398;5.466;2024-01-30T05:48:33;102351.53;;;9.23;100.00
9421;BME280;4749;51.398;5.466;2024-01-30T05:51:02;102361.25;;;9.25;100.00
9421;BME280;4749;51.398;5.466;2024-01-30T05:53:31;102357.81;;;9.28;100.00
9421;BME280;4749;51.398;5.466;2024-01-30T05:55:58;102364.94;;;9.32;100.00
9421;BME280;4749;51.398;5.466;2024-01-30T05:58:26;102364.94;;;9.32;100.00
9421;BME280;4749;51.398;5.466;2024-01-30T06:00:53;102353.59;;;9.33;100.00
9421;BME280;4749;51.398;5.466;2024-01-30T06:03:21;102358.06;;;9.36;100.00
9421;BME280;4749;51.398;5.466;2024-01-30T06:05:48;102352.81;;;9.36;100.00
9421;BME280;4749;51.398;5.466;2024-01-30T06:08:15;102355.47;;;9.37;100.00
9421;BME280;4749;51.398;5.466;2024-01-30T06:10:43;102361.66;;;9.39;100.00
9421;BME280;4749;51.398;5.466;2024-01-30T06:13:10;102360.81;;;9.40;100.00
9421;BME280;4749;51.398;5.466;2024-01-30T06:15:37;102359.97;;;9.41;100.00
9421;BME280;4749;51.398;5.466;2024-01-30T06:18:04;102359.19;;;9.44;100.00
9421;BME280;4749;51.398;5.466;2024-01-30T06:20:32;102354.00;;;9.45;100.00
9421;BME280;4749;51.398;5.466;2024-01-30T06:22:59;102358.38;;;9.46;100.00
9421;BME280;4749;51.398;5.466;2024-01-30T06:25:26;102357.59;;;9.49;100.00
9421;BME280;4749;51.398;5.466;2024-01-30T06:27:54;102358.56;;;9.51;100.00
9421;BME280;4749;51.398;5.466;2024-01-30T06:30:21;102353.34;;;9.52;100.00
9421;BME280;4749;51.398;5.466;2024-01-30T06:32:48;102360.38;;;9.53;100.00
9421;BME280;4749;51.398;5.466;2024-01-30T06:35:15;102363.03;;;9.55;100.00
9421;BME280;4749;51.398;5.466;2024-01-30T06:37:44;102365.66;;;9.55;100.00
9421;BME280;4749;51.398;5.466;2024-01-30T06:40:12;102363.03;;;9.55;100.00
9421;BME280;4749;51.398;5.466;2024-01-30T06:42:39;102367.44;;;9.56;100.00
9421;BME280;4749;51.398;5.466;2024-01-30T06:45:07;102364.84;;;9.57;100.00
9421;BME280;4749;51.398;5.466;2024-01-30T06:47:35;102371.91;;;9.58;100.00
9421;BME280;4749;51.398;5.466;2024-01-30T06:50:02;102380.56;;;9.56;100.00
9421;BME280;4749;51.398;5.466;2024-01-30T06:52:30;102385.94;;;9.59;100.00
9421;BME280;4749;51.398;5.466;2024-01-30T06:54:57;102378.09;;;9.61;100.00
9421;BME280;4749;51.398;5.466;2024-01-30T06:57:25;102391.31;;;9.64;100.00
9421;BME280;4749;51.398;5.466;2024-01-30T06:59:57;102381.69;;;9.64;100.00
9421;BME280;4749;51.398;5.466;2024-01-30T07:02:25;102384.44;;;9.67;100.00
9421;BME280;4749;51.398;5.466;2024-01-30T07:04:52;102386.22;;;9.68;100.00
9421;BME280;4749;51.398;5.466;2024-01-30T07:07:19;102386.25;;;9.70;100.00
9421;BME280;4749;51.398;5.466;2024-01-30T07:09:46;102410.78;;;9.70;100.00
9421;BME280;4749;51.398;5.466;2024-01-30T07:12:16;102416.09;;;9.72;100.00
9421;BME280;4749;51.398;5.466;2024-01-30T07:14:43;102411.69;;;9.71;100.00
9421;BME280;4749;51.398;5.466;2024-01-30T07:17:11;102416.09;;;9.72;100.00
9421;BME280;4749;51.398;5.466;2024-01-30T07:19:38;102423.13;;;9.73;100.00
9421;BME280;4749;51.398;5.466;2024-01-30T07:22:05;102431.00;;;9.73;100.00
9421;BME280;4749;51.398;5.466;2024-01-30T07:24:33;102427.53;;;9.74;100.00
9421;BME280;4749;51.398;5.466;2024-01-30T07:27:00;102426.63;;;9.73;100.00
9421;BME280;4749;51.398;5.466;2024-01-30T07:29:27;102432.78;;;9.74;100.00
9421;BME280;4749;51.398;5.466;2024-01-30T07:31:54;102428.41;;;9.74;100.00
9421;BME280;4749;51.398;5.466;2024-01-30T07:34:22;102429.31;;;9.75;100.00
9421;BME280;4749;51.398;5.466;2024-01-30T07:36:49;102435.47;;;9.75;100.00
9421;BME280;4749;51.398;5.466;2024-01-30T07:39:19;102436.38;;;9.76;100.00
9421;BME280;4749;51.398;5.466;2024-01-30T07:41:46;102440.81;;;9.78;100.00
9421;BME280;4749;51.398;5.466;2024-01-30T07:44:13;102438.19;;;9.78;100.00
9421;BME280;4749;51.398;5.466;2024-01-30T07:46:41;102441.69;;;9.79;100.00
9421;BME280;4749;51.398;5.466;2024-01-30T07:49:08;102440.81;;;9.78;100.00
9421;BME280;4749;51.398;5.466;2024-01-30T07:51:35;102440.84;;;9.80;100.00
9421;BME280;4749;51.398;5.466;2024-01-30T07:54:02;102446.19;;;9.83;100.00
9421;BME280;4749;51.398;5.466;2024-01-30T07:56:29;102441.00;;;9.84;100.00
9421;BME280;4749;51.398;5.466;2024-01-30T07:58:56;102441.09;;;9.87;100.00
9421;BME280;4749;51.398;5.466;2024-01-30T08:01:23;102456.94;;;9.91;100.00
9421;BME280;4749;51.398;5.466;2024-01-30T08:03:51;102457.91;;;9.93;100.00
9421;BME280;4749;51.398;5.466;2024-01-30T08:06:18;102463.25;;;9.96;100.00
9421;BME280;4749;51.398;5.466;2024-01-30T08:08:45;102465.06;;;9.98;100.00
9421;BME280;4749;51.398;5.466;2024-01-30T08:11:12;102461.66;;;10.01;100.00
9421;BME280;4749;51.398;5.466;2024-01-30T08:13:40;102466.09;;;10.03;100.00
9421;BME280;4749;51.398;5.466;2024-01-30T08:16:07;102463.56;;;10.06;100.00
9421;BME280;4749;51.398;5.466;2024-01-30T08:18:38;102474.19;;;10.09;100.00
9421;BME280;4749;51.398;5.466;2024-01-30T08:21:05;102465.53;;;10.13;100.00
9421;BME280;4749;51.398;5.466;2024-01-30T08:23:32;102460.44;;;10.18;100.00
9421;BME280;4749;51.398;5.466;2024-01-30T08:26:00;102459.78;;;10.25;100.00
9421;BME280;4749;51.398;5.466;2024-01-30T08:28:27;102466.16;;;10.33;100.00
9421;BME280;4749;51.398;5.466;2024-01-30T08:30:54;102467.22;;;10.40;100.00
9421;BME280;4749;51.398;5.466;2024-01-30T08:33:21;102460.41;;;10.47;100.00
9421;BME280;4749;51.398;5.466;2024-01-30T08:35:49;102467.59;;;10.52;100.00
9421;BME280;4749;51.398;5.466;2024-01-30T08:38:16;102469.44;;;10.56;100.00
9421;BME280;4749;51.398;5.466;2024-01-30T08:40:43;102461.63;;;10.59;100.00
9421;BME280;4749;51.398;5.466;2024-01-30T08:43:11;102467.91;;;10.63;100.00
9421;BME280;4749;51.398;5.466;2024-01-30T08:45:38;102467.13;;;10.67;100.00
9421;BME280;4749;51.398;5.466;2024-01-30T08:48:06;102462.00;;;10.71;100.00
9421;BME280;4749;51.398;5.466;2024-01-30T08:50:33;102468.22;;;10.75;100.00
9421;BME280;4749;51.398;5.466;2024-01-30T08:53:01;102464.75;;;10.76;100.00
9421;BME280;4749;51.398;5.466;2024-01-30T08:55:28;102461.28;;;10.77;100.00
9421;BME280;4749;51.398;5.466;2024-01-30T08:57:56;102460.50;;;10.81;100.00
9421;BME280;4749;51.398;5.466;2024-01-30T09:00:23;102465.97;;;10.89;100.00
9421;BME280;4749;51.398;5.466;2024-01-30T09:02:50;102460.91;;;10.95;100.00
9421;BME280;4749;51.398;5.466;2024-01-30T09:05:17;102460.94;;;10.96;100.00
9421;BME280;4749;51.398;5.466;2024-01-30T09:07:44;102470.63;;;10.99;100.00
9421;BME280;4749;51.398;5.466;2024-01-30T09:10:13;102467.22;;;11.02;100.00
9421;BME280;4749;51.398;5.466;2024-01-30T09:12:43;102465.53;;;11.05;100.00
9421;BME280;4749;51.398;5.466;2024-01-30T09:15:10;102465.66;;;11.10;100.00
9421;BME280;4749;51.398;5.466;2024-01-30T09:17:37;102460.53;;;11.14;100.00
9421;BME280;4749;51.398;5.466;2024-01-30T09:20:05;102480.00;;;11.21;100.00
9421;BME280;4749;51.398;5.466;2024-01-30T09:22:33;102481.06;;;11.27;100.00
9421;BME280;4749;51.398;5.466;2024-01-30T09:25:00;102476.75;;;11.31;100.00
9421;BME280;4749;51.398;5.466;2024-01-30T09:27:28;102474.25;;;11.36;100.00
9421;BME280;4749;51.398;5.466;2024-01-30T09:29:55;102477.97;;;11.44;100.00
9421;BME280;4749;51.398;5.466;2024-01-30T09:32:23;102478.97;;;11.50;100.00
9421;BME280;4749;51.398;5.466;2024-01-30T09:34:50;102480.03;;;11.57;100.00
9421;BME280;4749;51.398;5.466;2024-01-30T09:37:17;102482.72;;;11.60;100.00
9421;BME280;4749;51.398;5.466;2024-01-30T09:39:45;102488.97;;;11.64;100.00
9421;BME280;4749;51.398;5.466;2024-01-30T09:42:26;102487.22;;;11.64;100.00
9421;BME280;4749;51.398;5.466;2024-01-30T09:44:53;102491.63;;;11.64;100.00
9421;BME280;4749;51.398;5.466;2024-01-30T09:47:21;102493.44;;;11.68;100.00
9421;BME280;4749;51.398;5.466;2024-01-30T09:49:49;102490.91;;;11.71;100.00
9421;BME280;4749;51.398;5.466;2024-01-30T09:52:17;102498.06;;;11.76;100.00
9421;BME280;4749;51.398;5.466;2024-01-30T09:54:45;102498.25;;;11.82;100.00
9421;BME280;4749;51.398;5.466;2024-01-30T09:57:14;102492.13;;;11.83;100.00
9421;BME280;4749;51.398;5.466;2024-01-30T09:59:42;102502.09;;;11.97;100.00
9421;BME280;4749;51.398;5.466;2024-01-30T10:02:10;102502.41;;;12.10;100.00
9421;BME280;4749;51.398;5.466;2024-01-30T10:04:38;102510.53;;;12.20;100.00
9421;BME280;4749;51.398;5.466;2024-01-30T10:07:06;102503.94;;;12.38;100.00
9421;BME280;4749;51.398;5.466;2024-01-30T10:09:34;102508.50;;;12.47;100.00
9421;BME280;4749;51.398;5.466;2024-01-30T10:12:02;102503.38;;;12.53;100.00
9421;BME280;4749;51.398;5.466;2024-01-30T10:14:30;102504.41;;;12.61;100.00
9421;BME280;4749;51.398;5.466;2024-01-30T10:16:58;102501.00;;;12.68;100.00
9421;BME280;4749;51.398;5.466;2024-01-30T10:19:26;102502.88;;;12.73;100.00
9421;BME280;4749;51.398;5.466;2024-01-30T10:21:53;102507.13;;;12.66;100.00
9421;BME280;4749;51.398;5.466;2024-01-30T10:24:24;102510.63;;;12.65;100.00
9421;BME280;4749;51.398;5.466;2024-01-30T10:26:53;102508.88;;;12.65;100.00
9421;BME280;4749;51.398;5.466;2024-01-30T10:29:20;102515.88;;;12.63;100.00
9421;BME280;4749;51.398;5.466;2024-01-30T10:32:03;102521.94;;;12.59;100.00
9421;BME280;4749;51.398;5.466;2024-01-30T10:34:32;102521.84;;;12.55;100.00
9421;BME280;4749;51.398;5.466;2024-01-30T10:39:38;102515.03;;;12.64;100.00
9421;BME280;4749;51.398;5.466;2024-01-30T10:42:06;102515.25;;;12.77;100.00
9421;BME280;4749;51.398;5.466;2024-01-30T10:44:52;102517.91;;;12.77;100.00
9421;BME280;4749;51.398;5.466;2024-01-30T10:47:28;102535.31;;;12.68;100.00
9421;BME280;4749;51.398;5.466;2024-01-30T10:49:56;102529.81;;;12.56;100.00
9421;BME280;4749;51.398;5.466;2024-01-30T10:52:25;102525.25;;;12.49;100.00
9421;BME280;4749;51.398;5.466;2024-01-30T10:54:55;102528.75;;;12.48;100.00
9421;BME280;4749;51.398;5.466;2024-01-30T10:57:28;102529.78;;;12.55;100.00
9421;BME280;4749;51.398;5.466;2024-01-30T11:00:02;102524.75;;;12.68;100.00
9421;BME280;4749;51.398;5.466;2024-01-30T11:02:33;102531.34;;;12.87;100.00
9421;BME280;4749;51.398;5.466;2024-01-30T11:05:00;102522.94;;;13.08;100.00
9421;BME280;4749;51.398;5.466;2024-01-30T11:07:29;102534.00;;;13.34;100.00
9421;BME280;4749;51.398;5.466;2024-01-30T11:10:01;102524.56;;;13.48;100.00
9421;BME280;4749;51.398;5.466;2024-01-30T11:12:37;102529.00;;;13.51;100.00
9421;BME280;4749;51.398;5.466;2024-01-30T11:15:09;102527.09;;;13.41;100.00
9421;BME280;4749;51.398;5.466;2024-01-30T11:17:56;102529.53;;;13.29;100.00
9421;BME280;4749;51.398;5.466;2024-01-30T11:20:31;102520.47;;;13.19;100.00
9421;BME280;4749;51.398;5.466;2024-01-30T11:22:59;102536.25;;;13.14;100.00
9421;BME280;4749;51.398;5.466;2024-01-30T11:25:31;102522.13;;;13.12;100.00
9421;BME280;4749;51.398;5.466;2024-01-30T11:27:59;102534.69;;;13.22;100.00
9421;BME280;4749;51.398;5.466;2024-01-30T11:30:31;102526.16;;;13.37;100.00
9421;BME280;4749;51.398;5.466;2024-01-30T11:33:10;102533.50;;;13.55;100.00
9421;BME280;4749;51.398;5.466;2024-01-30T11:35:42;102536.31;;;13.64;100.00
9421;BME280;4749;51.398;5.466;2024-01-30T11:38:13;102533.69;;;13.67;100.00
9421;BME280;4749;51.398;5.466;2024-01-30T11:40:41;102523.97;;;13.65;100.00
9421;BME280;4749;51.398;5.466;2024-01-30T11:43:09;102524.84;;;13.64;100.00
9421;BME280;4749;51.398;5.466;2024-01-30T11:45:37;102518.56;;;13.59;100.00
9421;BME280;4749;51.398;5.466;2024-01-30T11:48:05;102519.47;;;13.59;100.00
9421;BME280;4749;51.398;5.466;2024-01-30T11:50:33;102517.72;;;13.60;100.00
9421;BME280;4749;51.398;5.466;2024-01-30T11:53:02;102520.44;;;13.64;100.00
9421;BME280;4749;51.398;5.466;2024-01-30T11:55:30;102517.13;;;13.77;100.00
9421;BME280;4749;51.398;5.466;2024-01-30T11:58:02;102517.34;;;13.91;100.00
9421;BME280;4749;51.398;5.466;2024-01-30T12:00:31;102521.91;;;14.03;100.00
9421;BME280;4749;51.398;5.466;2024-01-30T12:03:03;102515.03;;;14.13;100.00
9421;BME280;4749;51.398;5.466;2024-01-30T12:05:32;102523.94;;;14.21;100.00
9421;BME280;4749;51.398;5.466;2024-01-30T12:07:59;102514.31;;;14.24;100.00
9421;BME280;4749;51.398;5.466;2024-01-30T12:10:28;102514.28;;;14.21;100.00
9421;BME280;4749;51.398;5.466;2024-01-30T12:12:57;102522.22;;;14.21;100.00
9421;BME280;4749;51.398;5.466;2024-01-30T12:15:25;102523.94;;;14.21;100.00
9421;BME280;4749;51.398;5.466;2024-01-30T12:17:52;102523.00;;;14.16;100.00
9421;BME280;4749;51.398;5.466;2024-01-30T12:20:32;102534.34;;;14.07;100.00
9421;BME280;4749;51.398;5.466;2024-01-30T12:23:00;102524.50;;;13.98;100.00
9421;BME280;4749;51.398;5.466;2024-01-30T12:25:27;102528.69;;;13.86;100.00
9421;BME280;4749;51.398;5.466;2024-01-30T12:27:55;102544.28;;;13.67;100.00
9421;BME280;4749;51.398;5.466;2024-01-30T12:30:22;102551.06;;;13.53;100.00
9421;BME280;4749;51.398;5.466;2024-01-30T12:32:51;102553.59;;;13.45;100.00
9421;BME280;4749;51.398;5.466;2024-01-30T12:35:20;102545.72;;;13.48;100.00
9421;BME280;4749;51.398;5.466;2024-01-30T12:37:49;102558.97;;;13.51;100.00
9421;BME280;4749;51.398;5.466;2024-01-30T12:40:17;102559.03;;;13.55;100.00
9421;BME280;4749;51.398;5.466;2024-01-30T12:42:48;102569.81;;;13.67;100.00
9421;BME280;4749;51.398;5.466;2024-01-30T12:45:16;102571.38;;;13.54;100.00
9421;BME280;4749;51.398;5.466;2024-01-30T12:47:48;102573.06;;;13.50;100.00
9421;BME280;4749;51.398;5.466;2024-01-30T12:50:16;102569.66;;;13.58;100.00
9421;BME280;4749;51.398;5.466;2024-01-30T12:52:44;102582.16;;;13.68;100.00
9421;BME280;4749;51.398;5.466;2024-01-30T12:55:16;102588.31;;;13.67;100.00
9421;BME280;4749;51.398;5.466;2024-01-30T12:57:44;102592.72;;;13.68;100.00
9421;BME280;4749;51.398;5.466;2024-01-30T13:00:11;102588.50;;;13.77;100.00
9421;BME280;4749;51.398;5.466;2024-01-30T13:02:38;102588.34;;;13.70;100.00
9421;BME280;4749;51.398;5.466;2024-01-30T13:05:06;102586.44;;;13.61;100.00
9421;BME280;4749;51.398;5.466;2024-01-30T13:07:35;102597.53;;;13.40;100.00
9421;BME280;4749;51.398;5.466;2024-01-30T13:10:03;102589.97;;;13.15;100.00
9421;BME280;4749;51.398;5.466;2024-01-30T13:12:31;102600.22;;;13.01;100.00
9421;BME280;4749;51.398;5.466;2024-01-30T13:15:00;102599.22;;;12.94;100.00